Time;durP1;ratioP1;P1;durP2;ratioP2;P2;SDS_P1;SDS_P2;PMS_P1;PMS_P2;Temp;Humidity;BMP_temperature;BMP_pressure;BME280_temperature;BME280_humidity;BME280_pressure;Samples;Min_cycle;Max_cycle;Signal;HPM_P1;HPM_P2
2023/03/01 00:00:46;;;;;;;10.60;5.10;;;;;;;;;;5086544;28;20436;-52
2023/03/01 00:03:12;;;;;;;6.53;5.43;;;;;;;;;;5087216;28;20476;-53
2023/03/01 00:05:44;;;;;;;8.00;5.70;;;;;;;;;;5087765;28;20951;-52
2023/03/01 00:08:10;;;;;;;7.97;4.87;;;;;;;;;;5086946;28;20787;-53
2023/03/01 00:10:36;;;;;;;6.97;5.00;;;;;;;;;;5086482;28;21225;-53
2023/03/01 00:13:02;;;;;;;7.67;5.23;;;;;;;;;;5085541;28;20437;-53
2023/03/01 00:15:28;;;;;;;6.90;5.70;;;;;;;;;;5073593;28;20751;-52
2023/03/01 00:17:54;;;;;;;7.27;5.07;;;;;;;;;;5087095;28;20483;-53
2023/03/01 00:20:20;;;;;;;6.70;4.93;;;;;;;;;;5088657;28;20418;-52
2023/03/01 00:22:46;;;;;;;8.50;5.67;;;;;;;;;;5081505;28;20476;-53
2023/03/01 00:25:12;;;;;;;8.73;6.20;;;;;;;;;;5084008;28;20922;-53
2023/03/01 00:27:38;;;;;;;9.30;6.30;;;;;;;;;;5081471;28;21431;-53
2023/03/01 00:30:04;;;;;;;10.20;5.00;;;;;;;;;;5084225;28;20933;-52
2023/03/01 00:32:31;;;;;;;8.07;5.37;;;;;;;;;;5080210;28;21015;-52
2023/03/01 00:34:57;;;;;;;6.17;5.27;;;;;;;;;;5087068;28;20837;-53
2023/03/01 00:37:23;;;;;;;5.50;5.00;;;;;;;;;;5082417;28;20421;-52
2023/03/01 00:39:50;;;;;;;8.03;4.87;;;;;;;;;;5086431;28;20779;-52
2023/03/01 00:42:16;;;;;;;6.43;5.03;;;;;;;;;;5088514;28;20525;-53
2023/03/01 00:44:42;;;;;;;5.33;4.77;;;;;;;;;;5087333;28;20430;-52
2023/03/01 00:47:08;;;;;;;7.27;5.00;;;;;;;;;;5088924;28;20444;-53
2023/03/01 00:49:35;;;;;;;6.10;4.70;;;;;;;;;;5086540;28;20422;-53
2023/03/01 00:52:01;;;;;;;6.87;4.80;;;;;;;;;;5078892;28;20442;-53
2023/03/01 00:54:27;;;;;;;6.60;5.10;;;;;;;;;;5078811;28;20792;-53
2023/03/01 00:56:53;;;;;;;8.63;5.07;;;;;;;;;;5079745;28;20928;-52
2023/03/01 00:59:19;;;;;;;5.73;4.87;;;;;;;;;;5083261;28;20440;-53
2023/03/01 01:01:45;;;;;;;7.07;4.63;;;;;;;;;;5079390;28;20417;-53
2023/03/01 01:04:12;;;;;;;8.93;5.43;;;;;;;;;;5082086;28;21880;-53
2023/03/01 01:06:42;;;;;;;7.43;4.67;;;;;;;;;;5085419;28;20924;-52
2023/03/01 01:09:09;;;;;;;5.73;5.07;;;;;;;;;;5087558;28;20432;-53
2023/03/01 01:11:38;;;;;;;6.07;4.77;;;;;;;;;;5089090;28;20445;-52
2023/03/01 01:14:04;;;;;;;5.30;4.80;;;;;;;;;;5087783;28;20430;-52
2023/03/01 01:16:30;;;;;;;6.73;4.63;;;;;;;;;;5083482;28;20429;-53
2023/03/01 01:18:57;;;;;;;7.97;5.50;;;;;;;;;;5086217;28;20462;-52
2023/03/01 01:21:24;;;;;;;4.10;3.77;;;;;;;;;;5079318;28;20437;-53
2023/03/01 01:23:50;;;;;;;6.67;5.03;;;;;;;;;;5087778;28;20797;-53
2023/03/01 01:26:18;;;;;;;6.73;4.80;;;;;;;;;;5089572;28;20410;-52
2023/03/01 01:28:44;;;;;;;5.97;4.90;;;;;;;;;;5092285;28;20453;-52
2023/03/01 01:31:10;;;;;;;5.20;4.47;;;;;;;;;;5092718;28;20436;-52
2023/03/01 01:33:37;;;;;;;5.53;4.90;;;;;;;;;;5089730;28;20437;-52
2023/03/01 01:36:03;;;;;;;7.47;5.63;;;;;;;;;;5080762;28;20520;-52
2023/03/01 01:38:29;;;;;;;8.13;4.80;;;;;;;;;;5086390;28;20940;-53
2023/03/01 01:40:56;;;;;;;5.27;4.57;;;;;;;;;;5089335;28;20521;-53
2023/03/01 01:43:33;;;;;;;5.17;4.67;;;;;;;;;;5083873;28;20741;-53
2023/03/01 01:46:12;;;;;;;7.97;4.90;;;;;;;;;;5078348;28;20789;-53
2023/03/01 01:48:44;;;;;;;5.33;4.50;;;;;;;;;;5085880;28;20426;-53
2023/03/01 01:51:11;;;;;;;5.73;4.67;;;;;;;;;;5088113;28;20462;-53
2023/03/01 01:53:38;;;;;;;5.43;4.43;;;;;;;;;;5083869;28;20538;-52
2023/03/01 01:56:07;;;;;;;4.87;4.40;;;;;;;;;;5089746;28;20730;-52
2023/03/01 01:58:33;;;;;;;7.53;5.27;;;;;;;;;;5080370;28;20430;-52
2023/03/01 02:01:00;;;;;;;5.87;4.73;;;;;;;;;;5088110;28;20611;-52
2023/03/01 02:03:29;;;;;;;5.93;4.47;;;;;;;;;;5084958;28;20534;-53
2023/03/01 02:06:22;;;;;;;7.40;4.90;;;;;;;;;;5084007;28;20542;-52
2023/03/01 02:08:49;;;;;;;6.40;4.97;;;;;;;;;;5076372;28;20441;-52
2023/03/01 02:11:15;;;;;;;5.33;4.43;;;;;;;;;;5088125;28;20469;-52
2023/03/01 02:13:42;;;;;;;6.90;5.33;;;;;;;;;;5081747;28;20679;-53
2023/03/01 02:16:13;;;;;;;5.70;4.43;;;;;;;;;;5078411;28;20437;-52
2023/03/01 02:18:40;;;;;;;5.67;4.83;;;;;;;;;;5087560;28;20442;-52
2023/03/01 02:21:06;;;;;;;9.17;5.40;;;;;;;;;;5090261;28;20437;-53
2023/03/01 02:23:33;;;;;;;6.53;5.30;;;;;;;;;;5087717;28;20473;-52
2023/03/01 02:26:03;;;;;;;5.70;4.97;;;;;;;;;;5090424;28;20830;-53
2023/03/01 02:28:33;;;;;;;5.33;4.70;;;;;;;;;;5089182;28;20430;-52
2023/03/01 02:33:44;;;;;;;6.30;5.13;;;;;;;;;;5081120;28;20476;-52
2023/03/01 02:36:13;;;;;;;6.87;4.90;;;;;;;;;;5082009;28;20425;-53
2023/03/01 02:38:39;;;;;;;5.90;5.30;;;;;;;;;;5089652;28;20505;-52
2023/03/01 02:41:06;;;;;;;5.37;4.83;;;;;;;;;;5088631;28;20426;-52
2023/03/01 02:43:33;;;;;;;5.90;4.60;;;;;;;;;;5079342;28;20465;-52
2023/03/01 02:46:03;;;;;;;5.80;5.07;;;;;;;;;;5086339;28;20788;-52
2023/03/01 02:48:39;;;;;;;5.63;4.87;;;;;;;;;;5083919;28;20913;-52
2023/03/01 02:51:11;;;;;;;7.73;5.37;;;;;;;;;;5087315;28;20483;-52
2023/03/01 02:53:42;;;;;;;9.40;5.60;;;;;;;;;;5079279;28;20438;-52
2023/03/01 02:56:12;;;;;;;7.13;5.40;;;;;;;;;;5082583;28;20426;-53
2023/03/01 02:58:45;;;;;;;6.77;5.77;;;;;;;;;;5088632;28;20441;-52
2023/03/01 03:01:11;;;;;;;6.53;4.87;;;;;;;;;;5086278;28;20941;-52
2023/03/01 03:03:37;;;;;;;6.73;5.53;;;;;;;;;;5076328;28;20478;-53
2023/03/01 03:06:03;;;;;;;5.43;4.80;;;;;;;;;;5089638;28;20425;-52
2023/03/01 03:08:29;;;;;;;5.97;5.33;;;;;;;;;;5072522;28;20462;-53
2023/03/01 03:10:55;;;;;;;11.77;5.63;;;;;;;;;;5071500;28;20477;-52
2023/03/01 03:13:22;;;;;;;9.77;5.33;;;;;;;;;;5084827;28;20604;-53
2023/03/01 03:15:48;;;;;;;7.13;5.03;;;;;;;;;;5086755;28;20968;-53
2023/03/01 03:18:16;;;;;;;6.07;5.00;;;;;;;;;;5090144;28;20429;-52
2023/03/01 03:20:42;;;;;;;5.10;4.60;;;;;;;;;;5084760;28;20451;-53
2023/03/01 03:23:09;;;;;;;10.90;5.53;;;;;;;;;;5085533;28;20986;-53
2023/03/01 03:25:37;;;;;;;5.63;5.13;;;;;;;;;;5090648;28;20457;-53
2023/03/01 03:28:09;;;;;;;5.87;5.27;;;;;;;;;;5102980;28;20405;-53
2023/03/01 03:30:35;;;;;;;6.63;5.17;;;;;;;;;;5084163;28;20422;-52
2023/03/01 03:33:01;;;;;;;6.60;4.80;;;;;;;;;;5086469;28;20525;-52
2023/03/01 03:35:32;;;;;;;6.07;5.33;;;;;;;;;;5086789;28;20472;-52
2023/03/01 03:38:02;;;;;;;6.20;5.60;;;;;;;;;;5085863;28;20512;-52
2023/03/01 03:40:39;;;;;;;5.20;4.70;;;;;;;;;;5080743;28;20469;-52
2023/03/01 03:43:06;;;;;;;6.27;5.37;;;;;;;;;;5082566;28;20760;-52
2023/03/01 03:45:33;;;;;;;7.40;5.13;;;;;;;;;;5085581;28;20448;-52
2023/03/01 03:47:59;;;;;;;5.40;4.90;;;;;;;;;;5087248;28;20593;-53
2023/03/01 03:50:25;;;;;;;6.27;5.33;;;;;;;;;;5079228;28;20454;-52
2023/03/01 03:52:52;;;;;;;6.53;5.40;;;;;;;;;;5085659;28;20977;-53
2023/03/01 03:55:19;;;;;;;5.47;4.97;;;;;;;;;;5086919;28;20590;-52
2023/03/01 03:57:51;;;;;;;7.63;5.73;;;;;;;;;;5077549;28;20929;-52
2023/03/01 04:00:17;;;;;;;5.90;5.10;;;;;;;;;;5087207;28;20463;-52
2023/03/01 04:02:44;;;;;;;6.20;5.60;;;;;;;;;;5078536;28;20466;-52
2023/03/01 04:05:11;;;;;;;9.43;5.83;;;;;;;;;;5080667;28;20438;-53
2023/03/01 04:07:37;;;;;;;7.23;5.33;;;;;;;;;;5079082;28;20548;-53
2023/03/01 04:10:08;;;;;;;10.37;5.77;;;;;;;;;;5087395;28;20916;-52
2023/03/01 04:12:34;;;;;;;8.13;5.87;;;;;;;;;;5073872;28;20460;-52
2023/03/01 04:15:01;;;;;;;7.07;5.47;;;;;;;;;;5085163;28;20436;-52
2023/03/01 04:17:27;;;;;;;6.20;5.60;;;;;;;;;;5083404;28;20509;-51
2023/03/01 04:19:53;;;;;;;6.63;5.50;;;;;;;;;;5075486;28;20925;-52
2023/03/01 04:22:19;;;;;;;6.53;5.30;;;;;;;;;;5088034;28;20472;-52
2023/03/01 04:24:45;;;;;;;9.27;5.60;;;;;;;;;;5083268;28;20525;-52
2023/03/01 04:27:12;;;;;;;6.93;5.77;;;;;;;;;;5077609;28;20426;-51
2023/03/01 04:29:38;;;;;;;7.23;5.37;;;;;;;;;;5087874;28;20441;-53
2023/03/01 04:32:04;;;;;;;8.13;6.23;;;;;;;;;;5078509;28;20439;-53
2023/03/01 04:34:30;;;;;;;6.57;5.33;;;;;;;;;;5081210;28;20425;-53
2023/03/01 04:36:56;;;;;;;8.37;5.40;;;;;;;;;;5081846;28;20822;-53
2023/03/01 04:39:22;;;;;;;6.43;5.30;;;;;;;;;;5085770;28;20418;-52
2023/03/01 04:41:48;;;;;;;6.10;5.30;;;;;;;;;;5079278;28;20529;-52
2023/03/01 04:44:14;;;;;;;5.63;4.97;;;;;;;;;;5080933;28;20939;-53
2023/03/01 04:46:41;;;;;;;7.00;5.50;;;;;;;;;;5086558;28;20469;-53
2023/03/01 04:49:07;;;;;;;8.57;5.30;;;;;;;;;;5077500;28;20461;-52
2023/03/01 04:51:33;;;;;;;7.67;5.83;;;;;;;;;;5083013;28;20486;-52
2023/03/01 04:54:00;;;;;;;5.60;4.97;;;;;;;;;;5079332;28;20430;-52
2023/03/01 04:56:26;;;;;;;7.27;4.93;;;;;;;;;;5081458;28;20940;-52
2023/03/01 04:58:53;;;;;;;8.60;5.90;;;;;;;;;;5087638;28;20801;-52
2023/03/01 05:01:20;;;;;;;7.17;5.93;;;;;;;;;;5084979;28;20413;-53
2023/03/01 05:03:48;;;;;;;8.13;6.07;;;;;;;;;;5080283;28;20882;-52
2023/03/01 05:06:14;;;;;;;7.13;5.77;;;;;;;;;;5077548;28;20439;-53
2023/03/01 05:08:41;;;;;;;8.03;6.17;;;;;;;;;;5084745;28;20436;-52
2023/03/01 05:11:08;;;;;;;7.17;5.57;;;;;;;;;;5093067;28;20478;-52
2023/03/01 05:13:35;;;;;;;9.00;6.20;;;;;;;;;;5092832;28;20417;-52
2023/03/01 05:16:01;;;;;;;8.37;5.73;;;;;;;;;;5087789;28;20430;-52
2023/03/01 05:18:28;;;;;;;9.83;6.43;;;;;;;;;;5076301;28;20434;-53
2023/03/01 05:20:58;;;;;;;6.60;5.93;;;;;;;;;;5093280;28;20512;-52
2023/03/01 05:23:24;;;;;;;6.00;5.40;;;;;;;;;;5090645;28;20461;-52
2023/03/01 05:25:52;;;;;;;7.40;5.70;;;;;;;;;;5089170;28;20425;-52
2023/03/01 05:28:19;;;;;;;6.13;5.53;;;;;;;;;;5079842;28;20800;-53
2023/03/01 05:30:45;;;;;;;9.30;5.97;;;;;;;;;;5084173;28;20429;-53
2023/03/01 05:33:14;;;;;;;10.43;6.07;;;;;;;;;;5087755;28;20467;-53
2023/03/01 05:35:42;;;;;;;6.73;6.00;;;;;;;;;;5088804;28;20434;-53
2023/03/01 05:38:08;;;;;;;9.67;5.83;;;;;;;;;;5090668;28;20452;-53
2023/03/01 05:40:34;;;;;;;9.63;6.50;;;;;;;;;;5085750;28;20434;-52
2023/03/01 05:43:01;;;;;;;6.83;6.03;;;;;;;;;;5088362;28;20457;-53
2023/03/01 05:45:28;;;;;;;12.00;6.03;;;;;;;;;;5089792;28;20440;-52
2023/03/01 05:47:54;;;;;;;7.53;6.30;;;;;;;;;;5085617;28;20897;-53
2023/03/01 05:50:20;;;;;;;9.20;6.83;;;;;;;;;;5087325;28;20434;-53
2023/03/01 05:52:48;;;;;;;8.07;6.30;;;;;;;;;;5088493;28;21001;-52
2023/03/01 05:55:15;;;;;;;7.40;5.93;;;;;;;;;;5087119;28;20430;-53
2023/03/01 05:57:41;;;;;;;8.50;6.77;;;;;;;;;;5090505;28;20440;-53
2023/03/01 06:00:08;;;;;;;8.10;6.40;;;;;;;;;;5090283;28;20552;-52
2023/03/01 06:02:34;;;;;;;6.47;5.77;;;;;;;;;;5072200;28;20466;-52
2023/03/01 06:05:00;;;;;;;8.57;6.00;;;;;;;;;;5064045;28;20426;-53
2023/03/01 06:07:26;;;;;;;7.37;5.57;;;;;;;;;;5066394;28;20441;-53
2023/03/01 06:09:53;;;;;;;7.17;5.83;;;;;;;;;;5065654;28;20474;-53
2023/03/01 06:12:19;;;;;;;6.53;5.63;;;;;;;;;;5061434;28;20458;-53
2023/03/01 06:14:47;;;;;;;7.87;6.63;;;;;;;;;;5066087;28;20999;-53
2023/03/01 06:17:13;;;;;;;7.27;5.97;;;;;;;;;;5071275;28;20861;-53
2023/03/01 06:19:39;;;;;;;7.63;6.13;;;;;;;;;;5069126;28;21003;-53
2023/03/01 06:22:06;;;;;;;6.53;5.83;;;;;;;;;;5069471;28;20430;-53
2023/03/01 06:24:32;;;;;;;7.47;6.67;;;;;;;;;;5068452;28;20455;-53
2023/03/01 06:26:58;;;;;;;6.87;6.17;;;;;;;;;;5067886;28;20455;-52
2023/03/01 06:29:25;;;;;;;8.47;6.60;;;;;;;;;;5069365;28;20430;-51
2023/03/01 06:31:51;;;;;;;13.63;7.50;;;;;;;;;;5059477;28;20423;-53
2023/03/01 06:34:17;;;;;;;7.33;6.33;;;;;;;;;;5064228;28;20451;-53
2023/03/01 06:36:43;;;;;;;6.73;6.03;;;;;;;;;;5071426;28;20422;-53
2023/03/01 06:39:09;;;;;;;8.90;5.90;;;;;;;;;;5065276;28;20817;-55
2023/03/01 06:41:35;;;;;;;7.73;6.10;;;;;;;;;;5063541;28;21100;-54
2023/03/01 06:44:02;;;;;;;6.63;5.77;;;;;;;;;;5066620;28;20941;-55
2023/03/01 06:46:28;;;;;;;8.73;6.07;;;;;;;;;;5062231;28;20423;-55
2023/03/01 06:48:54;;;;;;;6.90;6.00;;;;;;;;;;5066690;28;20419;-55
2023/03/01 06:51:20;;;;;;;14.60;6.40;;;;;;;;;;5069340;28;20788;-55
2023/03/01 06:53:46;;;;;;;7.00;5.47;;;;;;;;;;5058773;28;20815;-55
2023/03/01 06:56:12;;;;;;;7.30;5.60;;;;;;;;;;5067140;28;20426;-55
2023/03/01 06:58:39;;;;;;;6.57;5.77;;;;;;;;;;5066311;28;20418;-55
2023/03/01 07:01:08;;;;;;;8.87;5.73;;;;;;;;;;5062038;28;20422;-55
2023/03/01 07:03:34;;;;;;;6.37;5.27;;;;;;;;;;5077394;28;20572;-55
2023/03/01 07:06:00;;;;;;;6.63;5.97;;;;;;;;;;5080439;28;20429;-55
2023/03/01 07:08:26;;;;;;;7.60;5.50;;;;;;;;;;5090570;28;20433;-55
2023/03/01 07:10:56;;;;;;;7.00;5.20;;;;;;;;;;5089197;28;20804;-55
2023/03/01 07:13:22;;;;;;;8.33;5.93;;;;;;;;;;5085015;28;20468;-55
2023/03/01 07:15:48;;;;;;;8.20;6.03;;;;;;;;;;5089133;28;20828;-55
2023/03/01 07:18:14;;;;;;;7.43;5.50;;;;;;;;;;5088491;28;20993;-54
2023/03/01 07:20:40;;;;;;;6.03;5.07;;;;;;;;;;5086561;28;20425;-54
2023/03/01 07:23:06;;;;;;;7.20;5.10;;;;;;;;;;5086564;28;20465;-55
2023/03/01 07:25:33;;;;;;;5.80;5.20;;;;;;;;;;5086416;28;20446;-55
2023/03/01 07:27:59;;;;;;;6.10;5.13;;;;;;;;;;5083685;28;20435;-55
2023/03/01 07:30:25;;;;;;;7.40;6.23;;;;;;;;;;5079019;28;20434;-55
2023/03/01 07:32:52;;;;;;;6.50;5.60;;;;;;;;;;5088945;28;20978;-55
2023/03/01 07:35:18;;;;;;;5.60;5.10;;;;;;;;;;5089913;28;20441;-55
2023/03/01 07:37:44;;;;;;;5.57;4.73;;;;;;;;;;5087850;28;20449;-55
2023/03/01 07:40:11;;;;;;;6.00;5.27;;;;;;;;;;5085445;28;20792;-54
2023/03/01 07:42:37;;;;;;;6.93;5.50;;;;;;;;;;5083666;28;20462;-55
2023/03/01 07:45:04;;;;;;;6.97;5.57;;;;;;;;;;5076904;28;20430;-55
2023/03/01 07:47:30;;;;;;;8.37;5.10;;;;;;;;;;5082580;28;20425;-55
2023/03/01 07:49:56;;;;;;;7.13;6.30;;;;;;;;;;5080344;28;20476;-55
2023/03/01 07:52:22;;;;;;;6.67;5.37;;;;;;;;;;5078118;28;20429;-55
2023/03/01 07:54:48;;;;;;;7.57;4.87;;;;;;;;;;5081655;28;20449;-55
2023/03/01 07:57:14;;;;;;;7.03;5.43;;;;;;;;;;5081319;28;20822;-55
2023/03/01 07:59:40;;;;;;;5.87;5.20;;;;;;;;;;5079528;28;20426;-55
2023/03/01 08:02:07;;;;;;;7.47;5.47;;;;;;;;;;5081258;28;20457;-55
2023/03/01 08:04:33;;;;;;;7.53;5.30;;;;;;;;;;5079086;28;20462;-55
2023/03/01 08:06:59;;;;;;;7.30;5.30;;;;;;;;;;5079648;28;20464;-55
2023/03/01 08:09:25;;;;;;;8.30;5.27;;;;;;;;;;5075594;28;21093;-55
2023/03/01 08:11:51;;;;;;;6.27;5.43;;;;;;;;;;5082890;28;21071;-55
2023/03/01 08:14:17;;;;;;;6.83;5.80;;;;;;;;;;5081771;28;20955;-55
2023/03/01 08:16:43;;;;;;;6.17;5.27;;;;;;;;;;5081228;28;20933;-55
2023/03/01 08:19:11;;;;;;;6.57;5.70;;;;;;;;;;5081059;28;20470;-55
2023/03/01 08:21:37;;;;;;;6.00;5.37;;;;;;;;;;5087323;28;21605;-55
2023/03/01 08:24:04;;;;;;;8.73;5.37;;;;;;;;;;5085371;28;20598;-55
2023/03/01 08:26:30;;;;;;;6.97;5.70;;;;;;;;;;5077021;28;20458;-55
2023/03/01 08:28:56;;;;;;;5.93;5.13;;;;;;;;;;5075047;28;20447;-55
2023/03/01 08:31:23;;;;;;;7.80;5.23;;;;;;;;;;5090310;28;20428;-55
2023/03/01 08:33:54;;;;;;;6.60;5.73;;;;;;;;;;5076528;28;20942;-55
2023/03/01 08:36:21;;;;;;;7.70;5.53;;;;;;;;;;5078498;28;20960;-55
2023/03/01 08:38:47;;;;;;;6.20;5.60;;;;;;;;;;5074807;28;20435;-55
2023/03/01 08:41:14;;;;;;;7.03;5.20;;;;;;;;;;5073348;28;20425;-55
2023/03/01 08:43:40;;;;;;;5.93;5.33;;;;;;;;;;5085990;28;20991;-55
2023/03/01 08:46:06;;;;;;;7.03;5.23;;;;;;;;;;5084162;28;20425;-55
2023/03/01 08:48:32;;;;;;;16.70;5.23;;;;;;;;;;5077997;28;20447;-55
2023/03/01 08:51:07;;;;;;;5.93;5.20;;;;;;;;;;5081030;28;20965;-55
2023/03/01 08:53:33;;;;;;;9.73;5.57;;;;;;;;;;5076208;28;20426;-55
2023/03/01 08:56:02;;;;;;;5.90;5.30;;;;;;;;;;5081242;28;20970;-55
2023/03/01 08:58:28;;;;;;;7.10;5.70;;;;;;;;;;5089194;28;20425;-55
2023/03/01 09:00:56;;;;;;;6.87;5.40;;;;;;;;;;5088453;28;20434;-55
2023/03/01 09:03:22;;;;;;;6.53;5.67;;;;;;;;;;5090469;28;20549;-55
2023/03/01 09:05:50;;;;;;;7.03;5.63;;;;;;;;;;5092155;28;20944;-55
2023/03/01 09:08:16;;;;;;;5.63;5.07;;;;;;;;;;5084718;28;20793;-55
2023/03/01 09:10:42;;;;;;;7.13;5.53;;;;;;;;;;5088483;28;20452;-55
2023/03/01 09:13:08;;;;;;;6.90;5.50;;;;;;;;;;5084207;28;20514;-55
2023/03/01 09:15:34;;;;;;;7.90;5.40;;;;;;;;;;5079196;28;20428;-55
2023/03/01 09:18:00;;;;;;;6.17;5.07;;;;;;;;;;5088231;28;20424;-56
2023/03/01 09:20:26;;;;;;;6.10;5.23;;;;;;;;;;5094003;28;20498;-55
2023/03/01 09:22:53;;;;;;;8.47;5.83;;;;;;;;;;5088594;28;20523;-55
2023/03/01 09:25:19;;;;;;;9.00;5.23;;;;;;;;;;5082932;28;20413;-55
2023/03/01 09:27:45;;;;;;;7.93;5.33;;;;;;;;;;5087719;28;20438;-55
2023/03/01 09:30:11;;;;;;;6.00;5.13;;;;;;;;;;5085832;28;20418;-55
2023/03/01 09:32:37;;;;;;;6.70;5.80;;;;;;;;;;5078953;28;20476;-55
2023/03/01 09:35:04;;;;;;;8.50;5.80;;;;;;;;;;5082760;28;20422;-55
2023/03/01 09:37:31;;;;;;;6.50;5.57;;;;;;;;;;5079937;28;20445;-55
2023/03/01 09:39:57;;;;;;;6.60;5.40;;;;;;;;;;5089262;28;20457;-55
2023/03/01 09:42:23;;;;;;;6.70;5.17;;;;;;;;;;5087965;28;20960;-55
2023/03/01 09:44:53;;;;;;;6.33;5.40;;;;;;;;;;5084673;28;20417;-55
2023/03/01 09:47:24;;;;;;;6.63;5.10;;;;;;;;;;5085521;28;20515;-55
2023/03/01 09:50:10;;;;;;;5.87;5.27;;;;;;;;;;5088469;28;20423;-55
2023/03/01 09:52:55;;;;;;;8.43;5.43;;;;;;;;;;5066894;28;20569;-56
2023/03/01 09:55:26;;;;;;;6.27;5.47;;;;;;;;;;5090833;28;20479;-56
2023/03/01 09:57:57;;;;;;;7.80;5.77;;;;;;;;;;5090523;28;20460;-56
2023/03/01 10:00:50;;;;;;;7.83;5.37;;;;;;;;;;5089776;28;20421;-55
2023/03/01 10:03:28;;;;;;;7.70;5.57;;;;;;;;;;5076704;28;20481;-56
2023/03/01 10:06:14;;;;;;;6.93;6.23;;;;;;;;;;5082591;28;20424;-56
2023/03/01 10:08:49;;;;;;;6.47;5.00;;;;;;;;;;5091890;28;20471;-56
2023/03/01 10:11:23;;;;;;;7.37;5.43;;;;;;;;;;5085063;28;20472;-56
2023/03/01 10:13:53;;;;;;;6.70;4.80;;;;;;;;;;5086095;28;20444;-58
2023/03/01 10:16:27;;;;;;;7.33;5.50;;;;;;;;;;5076350;28;20457;-56
2023/03/01 10:18:56;;;;;;;8.30;6.20;;;;;;;;;;5088925;28;20426;-55
2023/03/01 10:21:23;;;;;;;6.47;5.10;;;;;;;;;;5080559;28;20788;-56
2023/03/01 10:23:52;;;;;;;6.87;5.50;;;;;;;;;;5082637;28;20458;-56
2023/03/01 10:26:40;;;;;;;8.50;5.67;;;;;;;;;;5090617;28;20425;-55
2023/03/01 10:29:08;;;;;;;9.97;5.80;;;;;;;;;;5081129;28;20424;-56
2023/03/01 10:31:39;;;;;;;7.83;5.40;;;;;;;;;;5088574;28;20426;-56
2023/03/01 10:34:10;;;;;;;7.23;5.13;;;;;;;;;;5083491;28;20190;-56
2023/03/01 10:36:39;;;;;;;6.17;5.00;;;;;;;;;;5085856;28;20450;-56
2023/03/01 10:39:11;;;;;;;6.00;5.30;;;;;;;;;;5088005;28;20421;-56
2023/03/01 10:41:40;;;;;;;6.27;5.17;;;;;;;;;;5088384;28;20449;-56
2023/03/01 10:44:26;;;;;;;6.53;5.17;;;;;;;;;;5088215;28;20454;-55
2023/03/01 10:47:00;;;;;;;7.27;5.47;;;;;;;;;;5090491;28;20784;-55
2023/03/01 10:49:26;;;;;;;6.23;5.00;;;;;;;;;;5070445;28;20433;-55
2023/03/01 10:51:52;;;;;;;7.30;6.27;;;;;;;;;;5089043;28;20421;-55
2023/03/01 10:54:24;;;;;;;7.50;5.13;;;;;;;;;;5088984;28;20425;-55
2023/03/01 10:56:55;;;;;;;6.97;5.57;;;;;;;;;;5086464;28;20441;-55
2023/03/01 10:59:29;;;;;;;6.90;5.47;;;;;;;;;;5084260;28;20430;-55
2023/03/01 11:02:10;;;;;;;7.40;5.30;;;;;;;;;;5077066;28;20422;-55
2023/03/01 11:04:36;;;;;;;7.47;5.40;;;;;;;;;;5063959;28;20469;-55
2023/03/01 11:07:03;;;;;;;5.63;4.83;;;;;;;;;;5068395;28;20438;-55
2023/03/01 11:09:37;;;;;;;5.57;4.87;;;;;;;;;;5063424;28;20420;-55
2023/03/01 11:12:04;;;;;;;7.03;5.23;;;;;;;;;;5060985;28;20454;-55
2023/03/01 11:14:34;;;;;;;6.30;5.27;;;;;;;;;;5068748;28;20426;-55
2023/03/01 11:17:05;;;;;;;6.17;4.77;;;;;;;;;;5065346;28;20419;-56
2023/03/01 11:19:31;;;;;;;6.17;4.97;;;;;;;;;;5062437;28;20431;-56
2023/03/01 11:22:00;;;;;;;6.83;5.67;;;;;;;;;;5070797;28;20459;-56
2023/03/01 11:24:43;;;;;;;6.97;4.90;;;;;;;;;;5061479;28;20455;-56
2023/03/01 11:27:15;;;;;;;6.37;4.77;;;;;;;;;;5067898;28;20477;-56
2023/03/01 11:29:54;;;;;;;5.77;5.00;;;;;;;;;;5062313;28;20647;-56
2023/03/01 11:32:22;;;;;;;4.77;4.27;;;;;;;;;;5057883;28;20431;-56
2023/03/01 11:35:00;;;;;;;5.63;5.03;;;;;;;;;;5065321;28;20211;-56
2023/03/01 11:37:59;;;;;;;6.03;5.00;;;;;;;;;;5063988;28;20251;-56
2023/03/01 11:40:45;;;;;;;6.50;5.33;;;;;;;;;;5004838;28;20584;-56
2023/03/01 11:43:30;;;;;;;5.63;4.50;;;;;;;;;;5059140;28;20465;-56
2023/03/01 11:46:08;;;;;;;6.20;4.40;;;;;;;;;;5063926;28;20242;-56
2023/03/01 11:48:38;;;;;;;5.73;4.63;;;;;;;;;;5064603;28;20201;-56
2023/03/01 11:51:09;;;;;;;5.73;4.40;;;;;;;;;;5064147;28;20514;-56
2023/03/01 11:53:48;;;;;;;5.23;4.53;;;;;;;;;;5060442;28;20181;-56
2023/03/01 11:56:17;;;;;;;6.57;5.10;;;;;;;;;;5061031;28;20820;-56
2023/03/01 11:58:55;;;;;;;5.10;4.60;;;;;;;;;;5063757;28;20443;-56
2023/03/01 12:01:27;;;;;;;5.07;4.17;;;;;;;;;;5058196;28;20528;-56
2023/03/01 12:04:12;;;;;;;5.33;4.17;;;;;;;;;;5073698;28;20227;-56
2023/03/01 12:06:57;;;;;;;7.67;4.30;;;;;;;;;;5077433;28;20172;-56
2023/03/01 12:09:42;;;;;;;4.93;4.07;;;;;;;;;;5085423;28;20175;-56
2023/03/01 12:12:17;;;;;;;4.63;3.90;;;;;;;;;;5081917;28;20203;-56
2023/03/01 12:14:51;;;;;;;4.43;4.03;;;;;;;;;;5081466;28;20180;-56
2023/03/01 12:17:20;;;;;;;5.97;5.00;;;;;;;;;;5084979;28;20763;-57
2023/03/01 12:19:59;;;;;;;5.23;4.37;;;;;;;;;;5077433;28;20444;-56
2023/03/01 12:22:30;;;;;;;7.47;4.60;;;;;;;;;;5081795;28;20184;-56
2023/03/01 12:25:17;;;;;;;7.03;5.40;;;;;;;;;;5083413;28;20164;-56
2023/03/01 12:28:02;;;;;;;5.27;4.37;;;;;;;;;;5081629;28;20221;-56
2023/03/01 12:30:30;;;;;;;5.67;4.50;;;;;;;;;;5078379;28;20172;-56
2023/03/01 12:33:15;;;;;;;5.13;4.20;;;;;;;;;;5080544;28;20176;-55
2023/03/01 12:35:53;;;;;;;5.47;4.37;;;;;;;;;;5076623;28;20666;-56
2023/03/01 12:38:29;;;;;;;6.17;4.97;;;;;;;;;;5078613;28;20695;-57
2023/03/01 12:41:12;;;;;;;6.23;4.30;;;;;;;;;;5084477;28;20183;-56
2023/03/01 12:43:53;;;;;;;4.77;3.93;;;;;;;;;;5062598;28;20253;-56
2023/03/01 12:46:33;;;;;;;6.43;4.30;;;;;;;;;;5087911;28;20174;-56
2023/03/01 12:48:59;;;;;;;6.40;4.47;;;;;;;;;;5086825;28;20647;-56
2023/03/01 12:51:27;;;;;;;5.47;4.33;;;;;;;;;;5088615;28;20241;-56
2023/03/01 12:53:55;;;;;;;4.97;4.40;;;;;;;;;;5087591;28;20240;-53
2023/03/01 12:56:26;;;;;;;6.30;4.13;;;;;;;;;;5079756;28;20730;-54
2023/03/01 12:58:59;;;;;;;4.33;3.90;;;;;;;;;;5087533;28;20180;-53
2023/03/01 13:01:44;;;;;;;4.70;4.13;;;;;;;;;;5085035;28;20740;-55
2023/03/01 13:04:19;;;;;;;5.07;4.60;;;;;;;;;;5083210;28;20215;-55
2023/03/01 13:06:51;;;;;;;4.40;3.83;;;;;;;;;;5089780;28;20171;-55
2023/03/01 13:09:25;;;;;;;5.00;4.33;;;;;;;;;;5081767;28;20642;-54
2023/03/01 13:11:52;;;;;;;4.60;4.03;;;;;;;;;;5083220;28;20567;-54
2023/03/01 13:14:21;;;;;;;6.33;4.63;;;;;;;;;;5083235;28;20180;-54
2023/03/01 13:16:50;;;;;;;4.77;4.10;;;;;;;;;;5087081;28;20252;-55
2023/03/01 13:19:23;;;;;;;5.20;4.43;;;;;;;;;;5081225;28;20197;-55
2023/03/01 13:21:51;;;;;;;5.53;4.50;;;;;;;;;;5085680;28;20276;-55
2023/03/01 13:24:36;;;;;;;6.33;5.07;;;;;;;;;;5086815;28;20226;-54
2023/03/01 13:27:10;;;;;;;4.80;4.20;;;;;;;;;;5089117;28;20190;-54
2023/03/01 13:29:45;;;;;;;5.17;4.33;;;;;;;;;;5092652;28;20261;-54
2023/03/01 13:32:24;;;;;;;4.63;3.90;;;;;;;;;;5092555;28;20232;-55
2023/03/01 13:34:52;;;;;;;7.00;5.00;;;;;;;;;;5092657;28;20217;-55
2023/03/01 13:37:22;;;;;;;4.80;4.23;;;;;;;;;;5094763;28;20309;-55
2023/03/01 13:39:48;;;;;;;4.77;3.90;;;;;;;;;;5090281;28;20280;-53
2023/03/01 13:42:32;;;;;;;4.60;4.20;;;;;;;;;;5092442;28;20172;-54
2023/03/01 13:44:59;;;;;;;4.83;4.30;;;;;;;;;;5092090;28;20305;-54
2023/03/01 13:47:25;;;;;;;5.60;4.73;;;;;;;;;;5085765;28;20179;-54
2023/03/01 13:50:17;;;;;;;6.23;4.73;;;;;;;;;;5094147;28;20639;-54
2023/03/01 13:52:46;;;;;;;5.03;4.53;;;;;;;;;;5086081;28;20666;-54
2023/03/01 13:55:18;;;;;;;6.57;4.43;;;;;;;;;;5086584;28;20183;-54
2023/03/01 13:57:47;;;;;;;5.10;4.43;;;;;;;;;;5090507;28;20659;-54
2023/03/01 14:00:28;;;;;;;7.60;5.33;;;;;;;;;;5091796;28;20188;-53
2023/03/01 14:03:14;;;;;;;5.47;4.80;;;;;;;;;;5090490;28;20226;-54
2023/03/01 14:05:41;;;;;;;11.80;4.70;;;;;;;;;;5083568;28;20309;-55
2023/03/01 14:08:19;;;;;;;5.37;4.87;;;;;;;;;;5095933;28;20172;-53
2023/03/01 14:11:08;;;;;;;6.03;4.60;;;;;;;;;;5093458;28;20269;-54
2023/03/01 14:13:53;;;;;;;6.60;4.60;;;;;;;;;;5082825;28;20249;-54
2023/03/01 14:16:34;;;;;;;5.73;4.70;;;;;;;;;;5082940;28;20184;-55
2023/03/01 14:19:16;;;;;;;6.37;4.53;;;;;;;;;;5090210;28;20263;-54
2023/03/01 14:21:42;;;;;;;6.23;4.37;;;;;;;;;;5088429;28;20776;-54
2023/03/01 14:24:17;;;;;;;7.33;5.70;;;;;;;;;;5080220;28;20207;-53
2023/03/01 14:26:43;;;;;;;6.90;4.67;;;;;;;;;;5089705;28;20258;-55
2023/03/01 14:29:24;;;;;;;5.43;4.90;;;;;;;;;;5091676;28;20187;-54
2023/03/01 14:31:50;;;;;;;5.23;4.73;;;;;;;;;;5083310;28;20172;-54
2023/03/01 14:34:23;;;;;;;6.00;5.30;;;;;;;;;;5090561;28;20529;-54
2023/03/01 14:36:49;;;;;;;7.27;4.90;;;;;;;;;;5089765;28;20248;-55
2023/03/01 14:39:20;;;;;;;6.33;4.67;;;;;;;;;;5094750;28;20172;-53
2023/03/01 14:41:47;;;;;;;7.37;5.30;;;;;;;;;;5090536;28;20176;-54
2023/03/01 14:44:16;;;;;;;6.27;4.90;;;;;;;;;;5088860;28;20258;-54
2023/03/01 14:46:44;;;;;;;7.00;5.33;;;;;;;;;;5086645;28;20175;-54
2023/03/01 14:49:17;;;;;;;6.63;5.00;;;;;;;;;;5082415;28;20543;-57
2023/03/01 14:51:49;;;;;;;9.60;5.23;;;;;;;;;;5088832;28;20175;-56
2023/03/01 14:54:38;;;;;;;4.93;4.10;;;;;;;;;;5096028;28;20525;-56
2023/03/01 14:57:04;;;;;;;6.93;5.13;;;;;;;;;;5075882;28;20882;-56
2023/03/01 14:59:33;;;;;;;6.70;5.27;;;;;;;;;;5092037;28;20653;-56